Airfield :
LOGIN :

Register | Disclaimer

   EN    FR    IT 

 










Legend :    VFR   Marginal VFR   IFR   Intensive IFR   Very Intensive IFR
Visi :
Ceiling :
>= 8 km
>= 3000ft
5 to 8 km
1000 to 3000 ft
1500m to 5 km
500 to 1000 ft
800 to 1500m
200 to 500 ft
< 800m
< 200 ft
Symbols :   Thunderstorms  Fog  Heavy snow  Heavy precipitations  Wind > 20 kt
SIGMETs :     Misc.  Thunderstorms  Icing  Turbulence  Mountain Waves  Volcanic Ashes






- Airport Elevation : 357 ft
- IATA code : TUF


LFOT - Tours

CURRENT METAR :
  • 152100Z AUTO 20010KT CAVOK 14/10 Q1013 NOSIG

EXPIRED METARs :
  • 152030Z AUTO 20008KT CAVOK 14/10 Q1013 NOSIG
  • 152000Z AUTO 20009KT 9999 FEW026 OVC140 14/10 Q1013 NOSIG
  • 151930Z AUTO 21007KT 9999 FEW045 SCT056 OVC150 14/09 Q1013 NOSIG
  • 151900Z AUTO 22008KT 9999 FEW036 SCT042 OVC056 14/09 Q1013 NOSIG
  • 151830Z AUTO 22008KT 9999 FEW042 BKN056 OVC070 14/09 Q1012 NOSIG

TAF TAF LFOT
Valid from the 15 at 18:00 until the 16 at 18:00 UTC


151700Z 1518/1618 25010KT 9999 BKN045
PROB40
TEMPO 1523/1603 -RA BKN009
BECMG 1600/1603 21010G20KT
PROB30
TEMPO 1603/1606 -RA BKN012
TEMPO 1612/1618 -RA BKN020
PROB30
TEMPO 1614/1618 4000 RA BKN014



MET'MAP, your aeronautical weather chart ! - Copyright ORBIFLY December 2007 - Disclaimer

ORBIFLY MET'MAP TEAM :

Programming & Development : Alexandra Zaïnal
Concept & Development : Baudouin d'Aumeries
Co-Development & Prog : Marc-Olivier Méhu
Technical & hardware support : Manuel Goepfert

Contact : metmap@orbifly.com




SOURCES & CREDITS :

   NOAA